Time;durP1;ratioP1;P1;durP2;ratioP2;P2;SDS_P1;SDS_P2;PMS_P1;PMS_P2;Temp;Humidity;BMP_temperature;BMP_pressure;BME280_temperature;BME280_humidity;BME280_pressure;Samples;Min_cycle;Max_cycle;Signal;HPM_P1;HPM_P2
2023/06/23 00:01:17;;;;;;;4.78;2.67;;;18.00;99.90;;;;;;6246028;23;20370;-85
2023/06/23 00:03:45;;;;;;;4.30;2.53;;;18.00;99.90;;;;;;6219487;23;20359;-86
2023/06/23 00:06:11;;;;;;;4.00;2.85;;;18.00;99.90;;;;;;6218858;23;20391;-84
2023/06/23 00:08:40;;;;;;;6.75;3.50;;;18.00;99.90;;;;;;6245781;23;20077;-84
2023/06/23 00:11:10;;;;;;;6.97;3.25;;;18.00;99.90;;;;;;6245636;23;20103;-84
2023/06/23 00:13:37;;;;;;;2.90;2.08;;;18.00;99.90;;;;;;6245328;23;20466;-85
2023/06/23 00:16:06;;;;;;;4.78;2.85;;;18.00;99.90;;;;;;6218332;23;20069;-85
2023/06/23 00:18:36;;;;;;;3.90;3.28;;;17.90;99.90;;;;;;6245485;23;20016;-87
2023/06/23 00:21:07;;;;;;;3.75;2.47;;;17.90;99.90;;;;;;6218332;23;20020;-85
2023/06/23 00:23:34;;;;;;;4.32;2.08;;;17.90;99.90;;;;;;6218677;23;20343;-86
2023/06/23 00:26:00;;;;;;;4.30;2.40;;;17.90;99.90;;;;;;6245930;23;20023;-87
2023/06/23 00:28:26;;;;;;;4.40;2.58;;;17.90;99.90;;;;;;6218484;23;20052;-87
2023/06/23 00:30:52;;;;;;;5.97;2.65;;;17.90;99.90;;;;;;6218460;23;20074;-85
2023/06/23 00:33:18;;;;;;;3.13;1.75;;;17.90;99.90;;;;;;6218528;23;20022;-85
2023/06/23 00:35:44;;;;;;;4.70;2.10;;;17.90;99.90;;;;;;6245931;23;20342;-86
2023/06/23 00:38:10;;;;;;;4.18;2.47;;;17.90;99.90;;;;;;6219231;23;20054;-86
2023/06/23 00:40:36;;;;;;;6.47;2.20;;;17.90;99.90;;;;;;6219733;23;20121;-85
2023/06/23 00:43:02;;;;;;;6.30;2.30;;;17.90;99.90;;;;;;6247134;23;20434;-86
2023/06/23 00:45:29;;;;;;;3.97;2.13;;;17.90;99.90;;;;;;6249782;23;20063;-84
2023/06/23 00:47:55;;;;;;;7.07;2.45;;;17.80;99.90;;;;;;6247971;23;20017;-84
2023/06/23 00:50:22;;;;;;;4.30;2.25;;;17.80;99.90;;;;;;6248884;23;20020;-85
2023/06/23 00:52:52;;;;;;;3.80;1.88;;;17.90;99.90;;;;;;6222590;23;20031;-86
2023/06/23 00:55:22;;;;;;;3.75;2.28;;;17.80;99.90;;;;;;6249000;23;20023;-84
2023/06/23 00:57:50;;;;;;;4.55;1.77;;;17.90;99.90;;;;;;6221642;23;20020;-84
2023/06/23 01:00:18;;;;;;;4.43;1.98;;;17.90;99.90;;;;;;6247227;23;20020;-85
2023/06/23 01:02:49;;;;;;;4.05;2.03;;;17.90;99.90;;;;;;6195841;23;20095;-87
2023/06/23 01:05:27;;;;;;;4.72;1.90;;;17.90;99.90;;;;;;6194286;23;20462;-85
2023/06/23 01:08:03;;;;;;;4.40;2.00;;;17.90;99.90;;;;;;6245763;23;20127;-86
2023/06/23 01:10:37;;;;;;;4.57;1.85;;;17.90;99.90;;;;;;6218344;23;20103;-86
2023/06/23 01:13:13;;;;;;;3.83;1.95;;;17.90;99.90;;;;;;6218138;23;20016;-85
2023/06/23 01:16:06;;;;;;;6.18;1.77;;;17.90;99.90;;;;;;6245539;23;20020;-84
2023/06/23 01:18:51;;;;;;;3.40;1.98;;;17.90;99.90;;;;;;6244892;23;20489;-88
2023/06/23 01:21:30;;;;;;;2.60;2.00;;;17.90;99.90;;;;;;6218606;23;20066;-86
2023/06/23 01:24:11;;;;;;;4.35;2.00;;;17.90;99.90;;;;;;6247335;23;20386;-87
2023/06/23 01:27:16;;;;;;;3.00;1.88;;;17.90;99.90;;;;;;6246938;23;20043;-85
2023/06/23 01:29:47;;;;;;;5.18;2.58;;;17.90;99.90;;;;;;6247051;23;20024;-88
2023/06/23 01:32:26;;;;;;;5.47;1.40;;;17.90;99.90;;;;;;6220618;23;20048;-86
2023/06/23 01:34:56;;;;;;;5.93;2.42;;;17.80;99.90;;;;;;6246996;23;20020;-85
2023/06/23 01:37:27;;;;;;;4.38;1.65;;;17.90;99.90;;;;;;6246677;23;20509;-86
2023/06/23 01:39:57;;;;;;;3.17;2.40;;;17.80;99.90;;;;;;6247262;23;20024;-85
2023/06/23 01:42:29;;;;;;;5.78;2.53;;;17.80;99.90;;;;;;6220176;23;20024;-85
2023/06/23 01:44:58;;;;;;;6.28;2.03;;;17.80;99.90;;;;;;6219931;23;20031;-85
2023/06/23 01:47:28;;;;;;;8.52;2.30;;;17.80;99.90;;;;;;6219931;23;20327;-87
2023/06/23 01:49:58;;;;;;;5.25;1.90;;;17.80;99.90;;;;;;6246579;23;20332;-87
2023/06/23 01:52:25;;;;;;;8.15;2.05;;;17.80;99.90;;;;;;6219934;23;20096;-86
2023/06/23 01:54:53;;;;;;;7.13;2.03;;;17.80;99.90;;;;;;6219706;23;20052;-87
2023/06/23 01:57:21;;;;;;;3.20;1.42;;;17.80;99.90;;;;;;6247157;23;20012;-88
2023/06/23 01:59:49;;;;;;;5.80;2.05;;;17.80;99.90;;;;;;6247136;23;20023;-86
2023/06/23 02:02:17;;;;;;;3.80;2.15;;;17.70;99.90;;;;;;6219734;23;20070;-85
2023/06/23 02:04:46;;;;;;;4.45;1.83;;;17.80;99.90;;;;;;6220505;23;20024;-85
2023/06/23 02:07:14;;;;;;;3.88;1.73;;;17.70;99.90;;;;;;6219675;23;20463;-86
2023/06/23 02:09:41;;;;;;;5.40;1.88;;;17.70;99.90;;;;;;6246376;23;20020;-87
2023/06/23 02:12:09;;;;;;;4.50;2.35;;;17.80;99.90;;;;;;6247023;23;20039;-85
2023/06/23 02:14:38;;;;;;;5.30;1.77;;;17.80;99.90;;;;;;6246915;23;20020;-87
2023/06/23 02:17:10;;;;;;;4.72;2.15;;;17.80;99.90;;;;;;6246588;23;20028;-85
2023/06/23 02:19:39;;;;;;;1.77;1.40;;;17.80;99.90;;;;;;6246771;23;20046;-85
2023/06/23 02:22:11;;;;;;;7.00;1.95;;;17.80;99.90;;;;;;6246795;23;20056;-86
2023/06/23 02:24:40;;;;;;;3.75;1.80;;;17.80;99.90;;;;;;6246663;23;20055;-85
2023/06/23 02:27:08;;;;;;;4.38;1.80;;;17.80;99.90;;;;;;6220061;23;20439;-87
2023/06/23 02:29:39;;;;;;;3.33;1.70;;;17.80;99.90;;;;;;6170160;23;20028;-84
2023/06/23 02:32:06;;;;;;;5.10;1.80;;;17.80;99.90;;;;;;6246660;23;20016;-85
2023/06/23 02:34:35;;;;;;;5.68;1.90;;;17.80;99.90;;;;;;6246741;23;20469;-84
2023/06/23 02:37:11;;;;;;;2.45;1.42;;;17.70;99.90;;;;;;6246846;23;20131;-85
2023/06/23 02:39:44;;;;;;;4.00;1.92;;;17.80;99.90;;;;;;6246806;23;20012;-85
2023/06/23 02:42:14;;;;;;;5.13;1.63;;;17.70;99.90;;;;;;6219350;23;20035;-84
2023/06/23 02:44:45;;;;;;;5.13;1.80;;;17.70;99.90;;;;;;6246459;23;20028;-84
2023/06/23 02:47:17;;;;;;;6.03;1.90;;;17.70;99.90;;;;;;6246337;23;20099;-85
2023/06/23 02:49:45;;;;;;;3.35;1.70;;;17.70;99.90;;;;;;6219374;23;20027;-85
2023/06/23 02:52:15;;;;;;;4.07;1.92;;;17.70;99.90;;;;;;6246182;23;20031;-85
2023/06/23 02:54:46;;;;;;;4.13;1.60;;;17.70;99.90;;;;;;6246473;23;20031;-86
2023/06/23 02:57:14;;;;;;;3.30;1.55;;;17.70;99.90;;;;;;6246862;23;20380;-84
2023/06/23 02:59:42;;;;;;;4.15;1.77;;;17.70;99.90;;;;;;6219732;23;20020;-87
2023/06/23 03:02:09;;;;;;;6.32;2.40;;;17.70;99.90;;;;;;6246692;23;20095;-85
2023/06/23 03:04:39;;;;;;;7.82;2.75;;;17.70;99.90;;;;;;6246710;23;20012;-84
2023/06/23 03:07:05;;;;;;;3.20;1.40;;;17.70;99.90;;;;;;6219901;23;20442;-85
2023/06/23 03:09:31;;;;;;;3.05;1.30;;;17.70;99.90;;;;;;6245969;23;20386;-84
2023/06/23 03:11:57;;;;;;;2.08;1.23;;;17.70;99.90;;;;;;6245779;23;20020;-85
2023/06/23 03:14:23;;;;;;;1.92;1.33;;;17.60;99.90;;;;;;6194084;23;20102;-85
2023/06/23 03:17:03;;;;;;;3.38;1.30;;;17.60;99.90;;;;;;6246277;23;20099;-88
2023/06/23 03:19:58;;;;;;;3.22;1.30;;;17.60;99.90;;;;;;6245591;23;20521;-84
2023/06/23 03:22:33;;;;;;;5.00;1.30;;;17.50;99.90;;;;;;6246201;23;20016;-85
2023/06/23 03:25:08;;;;;;;2.30;1.42;;;17.50;99.90;;;;;;6219464;23;20149;-85
2023/06/23 03:27:37;;;;;;;4.82;1.50;;;17.50;99.90;;;;;;6218778;23;20177;-85
2023/06/23 03:30:12;;;;;;;1.70;1.27;;;17.50;99.90;;;;;;6218969;23;20024;-85
2023/06/23 03:32:47;;;;;;;2.78;1.33;;;17.50;99.90;;;;;;6218998;23;20106;-85
2023/06/23 03:35:18;;;;;;;2.65;1.42;;;17.40;99.90;;;;;;6246118;23;20476;-85
2023/06/23 03:37:55;;;;;;;4.45;1.50;;;17.40;99.90;;;;;;6219525;23;20024;-85
2023/06/23 03:40:23;;;;;;;4.13;1.65;;;17.40;99.90;;;;;;6219362;23;20347;-86
2023/06/23 03:43:17;;;;;;;3.08;1.30;;;17.40;99.90;;;;;;6246287;23;20087;-85
2023/06/23 03:45:47;;;;;;;2.67;1.45;;;17.30;99.90;;;;;;6242560;23;20043;-84
2023/06/23 03:48:15;;;;;;;3.70;1.52;;;17.30;99.90;;;;;;6245426;23;20032;-85
2023/06/23 03:50:43;;;;;;;3.70;1.42;;;17.30;99.90;;;;;;6245641;23;20020;-84
2023/06/23 03:53:10;;;;;;;2.80;1.63;;;17.20;99.90;;;;;;6245911;23;20020;-85
2023/06/23 03:55:38;;;;;;;2.75;1.52;;;17.20;99.90;;;;;;6245968;23;20031;-85
2023/06/23 03:58:06;;;;;;;2.47;1.20;;;17.20;99.90;;;;;;6246176;23;20020;-86
2023/06/23 04:00:35;;;;;;;3.40;1.55;;;17.20;99.90;;;;;;6246275;23;20083;-85
2023/06/23 04:03:05;;;;;;;3.95;1.70;;;17.20;99.90;;;;;;6219239;23;20024;-86
2023/06/23 04:05:33;;;;;;;3.45;1.60;;;17.20;99.90;;;;;;6219233;23;20027;-86
2023/06/23 04:08:00;;;;;;;3.75;1.67;;;17.10;99.90;;;;;;6245329;23;20027;-85
2023/06/23 04:10:28;;;;;;;2.25;1.35;;;17.10;99.90;;;;;;6218931;23;20355;-84
2023/06/23 04:12:56;;;;;;;2.55;1.50;;;17.10;99.90;;;;;;6193998;23;20034;-85
2023/06/23 04:15:24;;;;;;;2.83;1.40;;;17.10;99.90;;;;;;6246003;23;20116;-85
2023/06/23 04:17:52;;;;;;;2.67;1.20;;;17.10;99.90;;;;;;6245778;23;20320;-85
2023/06/23 04:20:19;;;;;;;2.20;1.50;;;17.10;99.90;;;;;;6246081;23;20027;-85
2023/06/23 04:22:47;;;;;;;2.28;1.27;;;17.10;99.90;;;;;;6246146;23;20039;-85
2023/06/23 04:25:14;;;;;;;2.75;1.23;;;17.10;99.90;;;;;;6245952;23;20101;-85
2023/06/23 04:27:43;;;;;;;1.75;1.13;;;17.10;99.90;;;;;;6192879;23;20024;-86
2023/06/23 04:30:10;;;;;;;2.10;1.13;;;17.10;99.90;;;;;;6218206;23;20395;-86
2023/06/23 04:32:38;;;;;;;2.28;1.20;;;17.10;99.90;;;;;;6218956;23;20409;-84
2023/06/23 04:35:04;;;;;;;2.00;1.10;;;17.10;99.90;;;;;;6218489;23;20063;-85
2023/06/23 04:37:41;;;;;;;1.85;1.00;;;17.10;99.90;;;;;;6245590;23;20067;-86
2023/06/23 04:40:09;;;;;;;2.65;1.40;;;17.10;99.90;;;;;;6245686;23;20391;-85
2023/06/23 04:42:44;;;;;;;2.30;1.33;;;17.10;99.90;;;;;;6245832;23;20051;-86
2023/06/23 04:45:13;;;;;;;2.70;1.40;;;17.10;99.90;;;;;;6218780;23;20087;-86
2023/06/23 04:47:40;;;;;;;2.90;1.63;;;17.20;99.90;;;;;;6244941;23;20251;-85
2023/06/23 04:50:14;;;;;;;3.30;1.20;;;17.20;99.90;;;;;;6245528;23;20016;-84
2023/06/23 04:52:49;;;;;;;1.60;1.10;;;17.20;99.90;;;;;;6245821;23;20066;-85
2023/06/23 04:55:17;;;;;;;;;;;17.20;99.90;;;;;;6219098;23;20027;-85
2023/06/23 04:57:45;;;;;;;2.75;1.30;;;17.20;99.90;;;;;;6219110;23;19922;-86
2023/06/23 05:00:16;;;;;;;4.90;1.80;;;17.20;99.90;;;;;;6245564;23;20024;-85
2023/06/23 05:02:44;;;;;;;2.50;1.70;;;17.20;99.90;;;;;;6218534;23;20047;-87
2023/06/23 05:05:14;;;;;;;2.97;1.20;;;17.30;99.90;;;;;;6218454;23;20028;-88
2023/06/23 05:07:41;;;;;;;4.63;1.80;;;17.30;99.90;;;;;;6219065;23;20016;-92
2023/06/23 05:10:08;;;;;;;2.15;1.48;;;17.40;99.90;;;;;;6245777;23;20031;-91
2023/06/23 05:12:38;;;;;;;1.70;1.13;;;17.40;99.90;;;;;;6245750;23;20016;-89
2023/06/23 05:15:07;;;;;;;2.58;1.40;;;17.40;99.90;;;;;;6219624;23;20529;-90
2023/06/23 05:17:35;;;;;;;4.20;2.00;;;17.50;99.90;;;;;;6245537;23;20379;-89
2023/06/23 05:20:03;;;;;;;7.95;2.53;;;17.50;99.90;;;;;;6219151;23;20454;-87
2023/06/23 05:22:31;;;;;;;3.50;2.20;;;17.60;99.90;;;;;;6246112;23;20025;-89
2023/06/23 05:25:04;;;;;;;4.78;2.25;;;17.50;99.90;;;;;;6218802;23;20016;-90
2023/06/23 05:27:32;;;;;;;4.90;2.88;;;17.60;99.90;;;;;;6246001;23;20414;-89
2023/06/23 05:29:59;;;;;;;6.18;2.75;;;17.60;99.90;;;;;;6219369;23;20023;-84
2023/06/23 05:32:30;;;;;;;4.40;2.45;;;17.60;99.90;;;;;;6245786;23;20022;-89
2023/06/23 05:35:02;;;;;;;4.32;1.85;;;17.60;99.90;;;;;;6218710;23;20020;-87
2023/06/23 05:37:30;;;;;;;4.70;1.77;;;17.60;99.90;;;;;;6218856;23;20480;-91
2023/06/23 05:40:00;;;;;;;3.90;1.83;;;17.60;99.90;;;;;;6247981;23;20020;-88
2023/06/23 05:42:27;;;;;;;4.70;2.42;;;17.60;99.90;;;;;;6247959;23;20020;-90
2023/06/23 05:44:53;;;;;;;5.45;2.50;;;17.60;99.90;;;;;;6218391;23;20024;-87
2023/06/23 05:47:24;;;;;;;4.85;2.70;;;17.60;99.90;;;;;;6218757;23;20027;-85
2023/06/23 05:49:53;;;;;;;4.55;2.47;;;17.60;99.90;;;;;;6244563;23;20024;-84
2023/06/23 05:52:22;;;;;;;5.93;2.20;;;17.60;99.90;;;;;;6245255;23;20020;-85
2023/06/23 05:54:52;;;;;;;7.07;2.50;;;17.60;99.90;;;;;;6244921;23;20016;-84
2023/06/23 05:57:28;;;;;;;3.63;1.75;;;17.60;99.90;;;;;;6244798;23;20020;-83
2023/06/23 06:00:09;;;;;;;5.18;2.60;;;17.60;99.90;;;;;;6245005;23;20027;-85
2023/06/23 06:02:38;;;;;;;4.10;2.65;;;17.60;99.90;;;;;;6245066;23;20342;-86
2023/06/23 06:05:07;;;;;;;3.25;2.45;;;17.70;99.90;;;;;;6244986;23;20024;-86
2023/06/23 06:07:35;;;;;;;4.30;2.50;;;17.70;99.90;;;;;;6245895;23;20024;-88
2023/06/23 06:10:02;;;;;;;3.67;2.20;;;17.80;99.90;;;;;;6220330;23;20023;-87
2023/06/23 06:12:30;;;;;;;6.10;3.15;;;18.00;99.90;;;;;;6246664;23;20064;-85
2023/06/23 06:14:58;;;;;;;13.02;5.82;;;18.20;99.90;;;;;;6246887;23;20016;-84
2023/06/23 06:17:25;;;;;;;6.40;3.53;;;18.30;99.90;;;;;;6219524;23;20024;-89
2023/06/23 06:19:54;;;;;;;5.45;2.85;;;18.50;99.90;;;;;;6220015;23;20027;-86
2023/06/23 06:22:21;;;;;;;6.53;3.83;;;18.70;99.90;;;;;;6247720;23;20027;-89
2023/06/23 06:24:48;;;;;;;7.82;4.55;;;18.90;99.90;;;;;;6246889;23;20023;-84
2023/06/23 06:27:15;;;;;;;6.68;3.80;;;19.00;99.90;;;;;;6223000;23;20020;-89
2023/06/23 06:29:43;;;;;;;8.48;3.75;;;19.10;99.90;;;;;;6221579;23;20034;-86
2023/06/23 06:32:10;;;;;;;4.32;3.00;;;19.20;99.90;;;;;;6225250;23;20020;-89
2023/06/23 06:34:38;;;;;;;9.10;3.33;;;19.40;99.90;;;;;;6263415;23;20046;-87
2023/06/23 06:37:05;;;;;;;5.60;4.18;;;19.50;99.90;;;;;;6234377;23;20035;-85
2023/06/23 06:39:32;;;;;;;5.68;3.08;;;19.70;99.90;;;;;;6231702;23;20047;-87
2023/06/23 06:41:58;;;;;;;8.10;3.08;;;19.80;99.90;;;;;;6231553;23;20020;-84
2023/06/23 06:44:26;;;;;;;5.00;2.22;;;19.90;99.90;;;;;;6233516;23;20031;-86
2023/06/23 06:46:53;;;;;;;4.10;2.10;;;20.10;99.90;;;;;;6185247;23;20024;-83
2023/06/23 06:49:21;;;;;;;4.80;2.38;;;20.20;99.90;;;;;;6233325;23;20334;-83
2023/06/23 06:51:49;;;;;;;4.75;1.98;;;20.30;99.90;;;;;;6226459;23;20353;-90
2023/06/23 06:54:18;;;;;;;4.40;2.17;;;20.40;99.90;;;;;;6254402;23;20027;-90
2023/06/23 06:56:44;;;;;;;2.95;1.85;;;20.50;99.90;;;;;;6228087;23;20484;-89
2023/06/23 06:59:10;;;;;;;2.30;1.60;;;20.60;99.90;;;;;;6255509;23;20072;-88
2023/06/23 07:01:38;;;;;;;3.97;1.58;;;20.90;99.90;;;;;;6206925;23;20024;-90
2023/06/23 07:04:06;;;;;;;5.50;1.45;;;20.90;99.90;;;;;;6229592;23;20062;-86
2023/06/23 07:06:34;;;;;;;11.73;3.58;;;21.00;99.90;;;;;;6256349;23;20443;-87
2023/06/23 07:08:59;;;;;;;5.63;1.88;;;21.10;99.90;;;;;;6222804;23;20063;-88
2023/06/23 07:11:25;;;;;;;3.13;1.70;;;21.10;99.90;;;;;;6220221;23;20028;-91
2023/06/23 07:13:51;;;;;;;5.78;2.42;;;21.20;99.90;;;;;;6247718;23;20443;-88
2023/06/23 07:16:16;;;;;;;3.25;1.83;;;21.40;99.90;;;;;;6247527;23;20024;-87
2023/06/23 07:18:42;;;;;;;3.42;1.45;;;21.50;99.90;;;;;;6194753;23;20069;-90
2023/06/23 07:21:10;;;;;;;2.35;1.40;;;21.50;99.90;;;;;;6219510;23;20021;-90
2023/06/23 07:23:37;;;;;;;2.85;1.45;;;21.60;99.90;;;;;;6247166;23;20023;-90
2023/06/23 07:26:03;;;;;;;2.88;1.42;;;21.80;99.90;;;;;;6247809;23;20391;-85
2023/06/23 07:28:28;;;;;;;2.25;1.63;;;21.80;99.90;;;;;;6221023;23;20020;-84
2023/06/23 07:30:54;;;;;;;2.70;1.30;;;21.90;99.90;;;;;;6248009;23;20034;-89
2023/06/23 07:33:20;;;;;;;4.75;1.30;;;22.00;99.90;;;;;;6248341;23;20115;-84
2023/06/23 07:35:46;;;;;;;2.10;1.20;;;22.20;99.90;;;;;;6248898;23;20032;-89
2023/06/23 07:38:12;;;;;;;2.67;1.30;;;22.30;99.90;;;;;;6221885;23;20451;-87
2023/06/23 07:40:37;;;;;;;3.53;1.05;;;22.50;99.90;;;;;;6249279;23;20059;-85
2023/06/23 07:43:03;;;;;;;3.78;1.58;;;22.50;99.90;;;;;;6250883;23;20046;-87
2023/06/23 07:45:29;;;;;;;3.85;1.40;;;22.50;99.90;;;;;;6198149;23;20042;-86
2023/06/23 07:47:54;;;;;;;3.33;1.70;;;22.70;99.90;;;;;;6221120;23;20016;-85
2023/06/23 07:50:20;;;;;;;3.10;1.42;;;22.90;99.90;;;;;;6220441;23;20115;-84
2023/06/23 07:52:53;;;;;;;2.42;1.20;;;22.80;99.90;;;;;;6246944;23;20074;-84
2023/06/23 07:55:19;;;;;;;2.50;1.30;;;23.00;99.90;;;;;;6246471;23;20028;-83
2023/06/23 07:57:45;;;;;;;3.05;1.60;;;23.00;99.90;;;;;;6246372;23;20451;-87
2023/06/23 08:00:11;;;;;;;2.00;1.20;;;23.20;99.90;;;;;;6246389;23;20020;-86
2023/06/23 08:02:37;;;;;;;2.53;1.20;;;23.30;99.90;;;;;;6246463;23;20488;-85
2023/06/23 08:05:03;;;;;;;4.43;1.40;;;23.30;99.90;;;;;;6246316;23;20447;-86
2023/06/23 08:07:29;;;;;;;5.20;2.20;;;23.40;99.90;;;;;;6246576;23;20016;-82
2023/06/23 08:09:54;;;;;;;2.20;1.08;;;23.30;99.90;;;;;;6219649;23;20039;-85
2023/06/23 08:12:20;;;;;;;1.88;1.30;;;23.40;99.90;;;;;;6245929;23;20055;-84
2023/06/23 08:14:46;;;;;;;1.92;1.00;;;23.30;99.90;;;;;;6219063;23;20033;-83
2023/06/23 08:17:11;;;;;;;2.45;1.25;;;23.40;99.90;;;;;;6218756;23;20020;-84
2023/06/23 08:19:37;;;;;;;2.90;1.27;;;23.60;99.90;;;;;;6193994;23;20031;-84
2023/06/23 08:22:03;;;;;;;4.05;1.40;;;23.70;99.90;;;;;;6219317;23;20032;-86
2023/06/23 08:24:29;;;;;;;2.35;1.20;;;23.60;99.90;;;;;;6245660;23;20016;-83
2023/06/23 08:26:55;;;;;;;2.60;1.48;;;23.70;99.90;;;;;;6218796;23;20012;-83
2023/06/23 08:29:20;;;;;;;3.65;1.70;;;23.60;99.90;;;;;;6246332;23;20023;-82
2023/06/23 08:31:46;;;;;;;3.28;1.67;;;23.70;99.90;;;;;;6247240;23;20027;-84
2023/06/23 08:34:12;;;;;;;1.75;1.20;;;23.80;99.90;;;;;;6245379;23;20462;-83
2023/06/23 08:36:37;;;;;;;4.00;1.70;;;24.00;99.90;;;;;;6245206;23;20095;-85
2023/06/23 08:39:03;;;;;;;2.42;1.70;;;23.90;99.90;;;;;;6245717;23;20016;-83
2023/06/23 08:41:31;;;;;;;3.22;1.60;;;23.90;99.90;;;;;;6218722;23;20024;-83
2023/06/23 08:44:01;;;;;;;6.05;1.92;;;23.70;99.90;;;;;;6245805;23;20071;-83
2023/06/23 08:46:31;;;;;;;2.25;1.17;;;23.90;99.90;;;;;;6245273;23;20054;-84
2023/06/23 08:49:03;;;;;;;3.25;1.70;;;24.10;99.90;;;;;;6193892;23;20165;-83
2023/06/23 08:51:29;;;;;;;2.78;1.60;;;24.10;99.90;;;;;;6218710;23;20130;-84
2023/06/23 08:53:55;;;;;;;3.33;1.73;;;24.10;99.90;;;;;;6245909;23;20059;-81
2023/06/23 08:56:21;;;;;;;3.80;1.58;;;24.30;99.90;;;;;;6218352;23;20028;-84
2023/06/23 08:58:47;;;;;;;4.47;1.55;;;24.50;99.90;;;;;;6246741;23;20059;-83
2023/06/23 09:01:13;;;;;;;1.75;1.23;;;24.70;99.90;;;;;;6247007;23;20027;-84
2023/06/23 09:03:38;;;;;;;3.20;1.70;;;24.50;99.90;;;;;;6247499;23;20055;-83
2023/06/23 09:06:04;;;;;;;2.83;1.60;;;24.70;99.90;;;;;;6245902;23;20020;-82
2023/06/23 09:08:30;;;;;;;3.40;1.10;;;24.60;99.90;;;;;;6245704;23;20385;-86
2023/06/23 09:10:56;;;;;;;2.28;1.40;;;24.60;99.90;;;;;;6193560;23;20067;-84
2023/06/23 09:13:34;;;;;;;2.95;1.73;;;24.40;99.90;;;;;;6219137;23;20024;-87
2023/06/23 09:16:00;;;;;;;2.60;1.52;;;24.40;99.90;;;;;;6194042;23;20020;-87
2023/06/23 09:18:25;;;;;;;4.82;1.55;;;24.50;99.90;;;;;;6219041;23;20024;-84
2023/06/23 09:20:52;;;;;;;3.03;1.67;;;24.30;99.90;;;;;;6246263;23;20013;-89
2023/06/23 09:23:20;;;;;;;3.65;2.15;;;24.50;99.90;;;;;;6220794;23;20039;-85
2023/06/23 09:25:51;;;;;;;2.60;1.55;;;24.50;99.90;;;;;;6248040;23;20020;-84
2023/06/23 09:28:23;;;;;;;2.95;1.52;;;24.50;99.90;;;;;;6246802;23;20051;-86
2023/06/23 09:30:49;;;;;;;3.42;1.80;;;24.50;99.90;;;;;;6221103;23;20451;-84
2023/06/23 09:33:18;;;;;;;1.80;1.13;;;24.40;99.90;;;;;;6246332;23;20016;-85
2023/06/23 09:35:52;;;;;;;2.70;1.30;;;24.60;99.90;;;;;;6245399;23;20035;-86
2023/06/23 09:38:23;;;;;;;2.85;1.60;;;24.90;99.90;;;;;;6245534;23;20020;-89
2023/06/23 09:41:09;;;;;;;3.42;1.40;;;24.90;99.90;;;;;;6246325;23;20055;-84
2023/06/23 09:43:43;;;;;;;2.72;1.42;;;25.10;99.90;;;;;;6220351;23;20024;-84
2023/06/23 09:46:12;;;;;;;2.63;1.33;;;25.20;99.90;;;;;;6220197;23;20103;-88
2023/06/23 09:48:38;;;;;;;1.85;1.05;;;25.20;99.90;;;;;;6246699;23;20024;-84
2023/06/23 09:51:05;;;;;;;4.10;1.20;;;25.20;99.90;;;;;;6220226;23;20063;-83
2023/06/23 09:53:32;;;;;;;2.80;1.20;;;25.50;99.90;;;;;;6220497;23;20027;-84
2023/06/23 09:55:59;;;;;;;2.10;1.05;;;25.50;99.90;;;;;;6247028;23;20500;-84
2023/06/23 09:58:32;;;;;;;2.10;0.90;;;25.50;99.90;;;;;;6220154;23;20020;-85
2023/06/23 10:01:07;;;;;;;1.98;1.10;;;25.60;98.10;;;;;;6247437;23;20052;-84
2023/06/23 10:03:41;;;;;;;;;;;25.70;99.90;;;;;;6220655;23;20020;-83
2023/06/23 10:06:07;;;;;;;2.47;1.40;;;25.40;99.90;;;;;;6247024;23;20249;-83
2023/06/23 10:08:39;;;;;;;1.73;1.13;;;25.60;99.90;;;;;;6247347;23;20047;-84
2023/06/23 10:11:06;;;;;;;2.28;1.02;;;25.50;99.90;;;;;;6247100;23;20342;-85
2023/06/23 10:13:34;;;;;;;2.10;1.00;;;25.80;99.90;;;;;;6247192;23;20024;-83
2023/06/23 10:16:01;;;;;;;1.63;1.15;;;25.40;99.80;;;;;;6246461;23;20076;-84
2023/06/23 10:18:28;;;;;;;1.92;1.27;;;25.40;99.90;;;;;;6219638;23;20359;-89
2023/06/23 10:20:54;;;;;;;3.33;1.73;;;25.80;99.80;;;;;;6246675;23;20020;-86
2023/06/23 10:23:22;;;;;;;2.53;1.42;;;25.60;99.90;;;;;;6219650;23;20020;-86
2023/06/23 10:25:54;;;;;;;4.13;1.80;;;25.50;99.90;;;;;;6219991;23;20094;-84
2023/06/23 10:28:22;;;;;;;2.63;1.45;;;25.40;99.90;;;;;;6246506;23;20091;-87
2023/06/23 10:30:48;;;;;;;4.20;1.13;;;25.50;99.90;;;;;;6219764;23;20027;-85
2023/06/23 10:33:19;;;;;;;1.65;1.00;;;25.80;99.90;;;;;;6219345;23;20027;-85
2023/06/23 10:35:48;;;;;;;2.28;1.30;;;26.20;99.90;;;;;;6246717;23;20024;-86
2023/06/23 10:38:20;;;;;;;2.05;1.30;;;26.40;99.80;;;;;;6219713;23;20038;-86
2023/06/23 10:40:50;;;;;;;2.75;1.42;;;26.20;99.20;;;;;;6220198;23;20023;-86
2023/06/23 10:43:19;;;;;;;2.97;1.52;;;26.20;99.90;;;;;;6219428;23;20351;-87
2023/06/23 10:45:46;;;;;;;4.28;1.75;;;25.90;99.20;;;;;;6246836;23;20097;-87
2023/06/23 10:48:13;;;;;;;2.85;1.40;;;25.80;99.90;;;;;;6245550;23;20467;-86
2023/06/23 10:50:40;;;;;;;4.80;1.70;;;26.00;99.80;;;;;;6197943;23;20021;-87
2023/06/23 10:53:17;;;;;;;3.67;2.05;;;26.10;98.70;;;;;;6188891;23;20099;-85
2023/06/23 10:55:45;;;;;;;4.07;1.85;;;25.80;98.90;;;;;;6189030;23;20025;-85
2023/06/23 10:58:11;;;;;;;2.65;1.35;;;25.90;98.90;;;;;;6164490;23;20087;-83
2023/06/23 11:00:37;;;;;;;2.45;1.48;;;26.20;99.00;;;;;;6216276;23;20095;-85
2023/06/23 11:03:08;;;;;;;2.78;1.40;;;26.20;98.90;;;;;;6189492;23;20024;-84
2023/06/23 11:05:39;;;;;;;2.58;1.55;;;26.50;99.20;;;;;;6215900;23;20024;-87
2023/06/23 11:08:10;;;;;;;4.10;1.17;;;26.50;99.10;;;;;;6216067;23;20027;-89
2023/06/23 11:10:57;;;;;;;4.47;1.33;;;26.70;98.90;;;;;;6189897;23;20051;-87
2023/06/23 11:13:46;;;;;;;2.05;1.40;;;26.60;98.60;;;;;;6164069;23;20459;-88
2023/06/23 11:16:29;;;;;;;1.90;1.33;;;26.60;98.40;;;;;;6188499;23;20024;-87
2023/06/23 11:19:01;;;;;;;2.35;1.27;;;26.60;97.80;;;;;;6188725;23;20020;-88
2023/06/23 11:21:28;;;;;;;3.00;1.30;;;26.40;98.10;;;;;;6215739;23;20116;-89
2023/06/23 11:24:26;;;;;;;4.65;1.60;;;26.60;97.70;;;;;;6189414;23;20079;-89
2023/06/23 11:26:59;;;;;;;1.73;1.40;;;26.50;97.40;;;;;;6070287;23;20022;-88
2023/06/23 11:29:25;;;;;;;3.28;1.38;;;26.50;98.60;;;;;;6070353;23;20054;-90
2023/06/23 11:32:08;;;;;;;165.68;153.77;;;26.40;97.70;;;;;;6070038;23;20473;-89
2023/06/23 11:34:52;;;;;;;659.55;601.97;;;26.60;98.40;;;;;;6094385;23;20065;-87
2023/06/23 11:37:18;;;;;;;3.28;1.85;;;26.40;97.20;;;;;;6046412;23;20053;-87
2023/06/23 11:39:44;;;;;;;2.65;1.50;;;26.20;97.80;;;;;;6070214;23;20470;-88
2023/06/23 11:42:10;;;;;;;2.75;1.45;;;26.50;97.40;;;;;;6070487;23;20429;-89
2023/06/23 11:44:36;;;;;;;3.95;2.08;;;26.30;97.60;;;;;;6070206;23;20030;-88
2023/06/23 11:47:02;;;;;;;2.78;1.70;;;26.20;97.40;;;;;;6070154;23;20014;-87
2023/06/23 11:49:28;;;;;;;3.78;1.40;;;26.60;97.40;;;;;;6076720;23;20394;-89
2023/06/23 11:52:04;;;;;;;2.15;1.60;;;26.50;95.00;;;;;;6099051;23;20092;-87
2023/06/23 11:54:35;;;;;;;2.35;1.52;;;26.10;95.40;;;;;;6099009;23;20457;-85
2023/06/23 11:57:02;;;;;;;484.05;349.42;;;26.70;96.80;;;;;;6098845;23;20036;-84
2023/06/23 11:59:39;;;;;;;952.92;629.83;;;26.20;96.60;;;;;;6123502;23;20018;-85
2023/06/23 12:02:05;;;;;;;1049.87;646.57;;;26.40;97.80;;;;;;6166453;23;20446;-84
2023/06/23 12:04:33;;;;;;;5.07;2.30;;;26.40;95.90;;;;;;6245385;23;20008;-83
2023/06/23 12:06:59;;;;;;;41.85;38.33;;;26.70;95.00;;;;;;6245104;23;20024;-84
2023/06/23 12:09:29;;;;;;;567.65;506.67;;;26.90;96.20;;;;;;6216002;23;20055;-83
2023/06/23 12:11:55;;;;;;;2.53;1.10;;;26.90;94.90;;;;;;6217939;23;20020;-84
2023/06/23 12:14:33;;;;;;;96.15;90.60;;;26.90;95.90;;;;;;6245541;23;20019;-83
2023/06/23 12:17:10;;;;;;;2.65;1.88;;;27.30;96.00;;;;;;6243938;23;20020;-84
2023/06/23 12:19:37;;;;;;;920.30;778.90;;;27.40;94.40;;;;;;6245539;23;20020;-83
2023/06/23 12:22:03;;;;;;;1.52;1.10;;;27.30;93.30;;;;;;6245248;23;20109;-83
2023/06/23 12:24:32;;;;;;;1.67;1.33;;;27.30;92.30;;;;;;6244829;23;20015;-84
2023/06/23 12:27:00;;;;;;;2.00;1.10;;;27.20;93.00;;;;;;6245633;23;20020;-85
2023/06/23 12:29:29;;;;;;;2.42;1.50;;;27.20;93.70;;;;;;6218128;23;20024;-83
2023/06/23 12:31:57;;;;;;;3.88;1.40;;;26.70;93.50;;;;;;6244901;23;20065;-84
2023/06/23 12:34:41;;;;;;;3.50;1.65;;;26.70;93.40;;;;;;6218077;23;20575;-84
2023/06/23 12:37:12;;;;;;;3.15;1.40;;;26.80;93.60;;;;;;6245326;23;20020;-84
2023/06/23 12:39:40;;;;;;;2.45;1.23;;;27.10;93.10;;;;;;6244722;23;20020;-84
2023/06/23 12:42:09;;;;;;;1.90;1.17;;;27.00;93.90;;;;;;6245474;23;20017;-85
2023/06/23 12:44:38;;;;;;;2.35;1.20;;;27.00;93.20;;;;;;6244934;23;20020;-83
2023/06/23 12:47:05;;;;;;;3.47;1.48;;;27.10;93.50;;;;;;6245212;23;20020;-84
2023/06/23 12:49:32;;;;;;;1.60;1.10;;;27.30;92.70;;;;;;6244985;23;20031;-84
2023/06/23 12:52:01;;;;;;;766.50;581.95;;;27.40;93.30;;;;;;6245276;23;20020;-84
2023/06/23 12:54:27;;;;;;;968.17;632.83;;;26.90;92.20;;;;;;6218155;23;20051;-85
2023/06/23 12:57:01;;;;;;;1084.27;697.03;;;27.30;92.90;;;;;;6243400;23;20051;-84